sensor_id;sensor_type;location;lat;lon;timestamp;P1;durP1;ratioP1;P2;durP2;ratioP2
46036;SDS011;31769;49.304;8.428;2023-04-01T00:01:09;3.40;;;0.98;;
46036;SDS011;31769;49.304;8.428;2023-04-01T00:04:13;3.90;;;0.70;;
46036;SDS011;31769;49.304;8.428;2023-04-01T00:07:15;5.25;;;0.90;;
46036;SDS011;31769;49.304;8.428;2023-04-01T00:10:16;2.55;;;0.70;;
46036;SDS011;31769;49.304;8.428;2023-04-01T00:13:17;5.57;;;0.80;;
46036;SDS011;31769;49.304;8.428;2023-04-01T00:16:18;2.40;;;0.68;;
46036;SDS011;31769;49.304;8.428;2023-04-01T00:19:19;2.60;;;0.70;;
46036;SDS011;31769;49.304;8.428;2023-04-01T00:22:20;4.85;;;0.75;;
46036;SDS011;31769;49.304;8.428;2023-04-01T00:25:21;4.43;;;0.65;;
46036;SDS011;31769;49.304;8.428;2023-04-01T00:28:22;1.52;;;0.68;;
46036;SDS011;31769;49.304;8.428;2023-04-01T00:31:23;4.22;;;1.00;;
46036;SDS011;31769;49.304;8.428;2023-04-01T00:34:24;3.13;;;0.75;;
46036;SDS011;31769;49.304;8.428;2023-04-01T00:37:26;3.55;;;0.95;;
46036;SDS011;31769;49.304;8.428;2023-04-01T00:40:28;4.10;;;0.93;;
46036;SDS011;31769;49.304;8.428;2023-04-01T00:43:32;4.07;;;0.82;;
46036;SDS011;31769;49.304;8.428;2023-04-01T00:46:33;4.75;;;1.02;;
46036;SDS011;31769;49.304;8.428;2023-04-01T00:49:39;3.00;;;0.70;;
46036;SDS011;31769;49.304;8.428;2023-04-01T00:52:42;3.50;;;1.02;;
46036;SDS011;31769;49.304;8.428;2023-04-01T00:55:45;4.03;;;0.73;;
46036;SDS011;31769;49.304;8.428;2023-04-01T00:58:51;5.82;;;1.10;;
46036;SDS011;31769;49.304;8.428;2023-04-01T01:01:58;4.53;;;0.95;;
46036;SDS011;31769;49.304;8.428;2023-04-01T01:04:59;4.45;;;0.80;;
46036;SDS011;31769;49.304;8.428;2023-04-01T01:08:13;5.57;;;1.00;;
46036;SDS011;31769;49.304;8.428;2023-04-01T01:11:29;3.65;;;1.02;;
46036;SDS011;31769;49.304;8.428;2023-04-01T01:27:39;6.20;;;1.00;;
46036;SDS011;31769;49.304;8.428;2023-04-01T01:30:48;4.53;;;1.00;;
46036;SDS011;31769;49.304;8.428;2023-04-01T01:37:18;6.80;;;1.23;;
46036;SDS011;31769;49.304;8.428;2023-04-01T01:40:22;5.93;;;1.38;;
46036;SDS011;31769;49.304;8.428;2023-04-01T01:43:30;7.57;;;1.30;;
46036;SDS011;31769;49.304;8.428;2023-04-01T01:46:35;3.60;;;0.85;;
46036;SDS011;31769;49.304;8.428;2023-04-01T01:49:38;5.80;;;1.05;;
46036;SDS011;31769;49.304;8.428;2023-04-01T01:52:40;3.42;;;1.15;;
46036;SDS011;31769;49.304;8.428;2023-04-01T01:55:43;4.93;;;0.82;;
46036;SDS011;31769;49.304;8.428;2023-04-01T01:58:47;5.10;;;1.25;;
46036;SDS011;31769;49.304;8.428;2023-04-01T02:01:54;2.72;;;0.50;;
46036;SDS011;31769;49.304;8.428;2023-04-01T02:04:56;6.95;;;0.63;;
46036;SDS011;31769;49.304;8.428;2023-04-01T02:08:02;7.40;;;0.80;;
46036;SDS011;31769;49.304;8.428;2023-04-01T02:11:16;4.80;;;1.00;;
46036;SDS011;31769;49.304;8.428;2023-04-01T02:14:26;3.35;;;0.60;;
46036;SDS011;31769;49.304;8.428;2023-04-01T02:17:45;6.13;;;0.70;;
46036;SDS011;31769;49.304;8.428;2023-04-01T02:20:47;7.32;;;0.40;;
46036;SDS011;31769;49.304;8.428;2023-04-01T02:23:49;5.55;;;0.60;;
46036;SDS011;31769;49.304;8.428;2023-04-01T02:26:52;6.40;;;0.70;;
46036;SDS011;31769;49.304;8.428;2023-04-01T02:29:53;3.22;;;0.65;;
46036;SDS011;31769;49.304;8.428;2023-04-01T02:32:55;4.28;;;0.52;;
46036;SDS011;31769;49.304;8.428;2023-04-01T02:35:57;4.07;;;0.30;;
46036;SDS011;31769;49.304;8.428;2023-04-01T02:38:58;5.35;;;0.98;;
46036;SDS011;31769;49.304;8.428;2023-04-01T02:42:02;3.33;;;0.52;;
46036;SDS011;31769;49.304;8.428;2023-04-01T02:45:05;4.00;;;0.68;;
46036;SDS011;31769;49.304;8.428;2023-04-01T02:48:06;4.97;;;0.47;;
46036;SDS011;31769;49.304;8.428;2023-04-01T02:51:08;3.83;;;0.50;;
46036;SDS011;31769;49.304;8.428;2023-04-01T02:54:08;5.25;;;0.43;;
46036;SDS011;31769;49.304;8.428;2023-04-01T02:57:09;6.63;;;0.60;;
46036;SDS011;31769;49.304;8.428;2023-04-01T03:00:10;6.53;;;0.90;;
46036;SDS011;31769;49.304;8.428;2023-04-01T03:03:13;7.22;;;0.73;;
46036;SDS011;31769;49.304;8.428;2023-04-01T03:06:14;1.98;;;0.50;;
46036;SDS011;31769;49.304;8.428;2023-04-01T03:09:16;4.88;;;0.68;;
46036;SDS011;31769;49.304;8.428;2023-04-01T03:12:17;4.13;;;0.55;;
46036;SDS011;31769;49.304;8.428;2023-04-01T03:15:23;6.05;;;0.88;;
46036;SDS011;31769;49.304;8.428;2023-04-01T03:18:24;5.22;;;0.57;;
46036;SDS011;31769;49.304;8.428;2023-04-01T03:21:25;2.75;;;0.40;;
46036;SDS011;31769;49.304;8.428;2023-04-01T03:24:26;3.60;;;0.82;;
46036;SDS011;31769;49.304;8.428;2023-04-01T03:27:27;3.83;;;0.60;;
46036;SDS011;31769;49.304;8.428;2023-04-01T03:30:27;3.33;;;0.65;;
46036;SDS011;31769;49.304;8.428;2023-04-01T03:33:30;3.80;;;0.40;;
46036;SDS011;31769;49.304;8.428;2023-04-01T03:36:31;6.15;;;0.57;;
46036;SDS011;31769;49.304;8.428;2023-04-01T03:39:32;4.82;;;0.65;;
46036;SDS011;31769;49.304;8.428;2023-04-01T03:42:33;3.00;;;0.50;;
46036;SDS011;31769;49.304;8.428;2023-04-01T03:45:33;4.65;;;0.45;;
46036;SDS011;31769;49.304;8.428;2023-04-01T03:48:34;3.70;;;0.80;;
46036;SDS011;31769;49.304;8.428;2023-04-01T03:51:35;2.65;;;0.50;;
46036;SDS011;31769;49.304;8.428;2023-04-01T03:54:36;3.63;;;0.60;;
46036;SDS011;31769;49.304;8.428;2023-04-01T03:57:37;3.85;;;0.88;;
46036;SDS011;31769;49.304;8.428;2023-04-01T04:00:48;3.13;;;0.43;;
46036;SDS011;31769;49.304;8.428;2023-04-01T04:03:49;3.67;;;0.80;;
46036;SDS011;31769;49.304;8.428;2023-04-01T04:06:50;5.75;;;0.73;;
46036;SDS011;31769;49.304;8.428;2023-04-01T04:09:52;3.67;;;0.88;;
46036;SDS011;31769;49.304;8.428;2023-04-01T04:12:52;4.20;;;0.60;;
46036;SDS011;31769;49.304;8.428;2023-04-01T04:15:55;5.82;;;0.98;;
46036;SDS011;31769;49.304;8.428;2023-04-01T04:18:56;4.95;;;0.70;;
46036;SDS011;31769;49.304;8.428;2023-04-01T04:21:57;5.38;;;1.00;;
46036;SDS011;31769;49.304;8.428;2023-04-01T04:25:01;5.38;;;0.70;;
46036;SDS011;31769;49.304;8.428;2023-04-01T04:28:03;6.32;;;0.60;;
46036;SDS011;31769;49.304;8.428;2023-04-01T04:31:04;5.70;;;0.90;;
46036;SDS011;31769;49.304;8.428;2023-04-01T04:34:09;5.20;;;0.52;;
46036;SDS011;31769;49.304;8.428;2023-04-01T04:37:10;4.05;;;0.82;;
46036;SDS011;31769;49.304;8.428;2023-04-01T04:40:11;5.35;;;0.73;;
46036;SDS011;31769;49.304;8.428;2023-04-01T04:43:13;5.93;;;0.82;;
46036;SDS011;31769;49.304;8.428;2023-04-01T04:46:16;5.53;;;1.08;;
46036;SDS011;31769;49.304;8.428;2023-04-01T04:49:18;3.80;;;0.68;;
46036;SDS011;31769;49.304;8.428;2023-04-01T04:52:19;4.47;;;0.60;;
46036;SDS011;31769;49.304;8.428;2023-04-01T04:55:20;7.82;;;1.05;;
46036;SDS011;31769;49.304;8.428;2023-04-01T04:58:26;2.47;;;0.40;;
46036;SDS011;31769;49.304;8.428;2023-04-01T05:01:27;6.25;;;0.75;;
46036;SDS011;31769;49.304;8.428;2023-04-01T05:04:28;3.45;;;0.55;;
46036;SDS011;31769;49.304;8.428;2023-04-01T05:07:29;4.82;;;0.70;;
46036;SDS011;31769;49.304;8.428;2023-04-01T05:10:30;4.10;;;0.77;;
46036;SDS011;31769;49.304;8.428;2023-04-01T05:13:31;4.72;;;0.50;;
46036;SDS011;31769;49.304;8.428;2023-04-01T05:16:32;6.50;;;0.80;;
46036;SDS011;31769;49.304;8.428;2023-04-01T05:19:33;5.35;;;0.70;;
46036;SDS011;31769;49.304;8.428;2023-04-01T05:22:34;6.43;;;0.95;;
46036;SDS011;31769;49.304;8.428;2023-04-01T05:25:37;4.32;;;0.60;;
46036;SDS011;31769;49.304;8.428;2023-04-01T05:28:38;5.55;;;0.90;;
46036;SDS011;31769;49.304;8.428;2023-04-01T05:31:39;4.47;;;1.25;;
46036;SDS011;31769;49.304;8.428;2023-04-01T05:34:40;4.38;;;1.17;;
46036;SDS011;31769;49.304;8.428;2023-04-01T05:37:42;5.22;;;1.35;;
46036;SDS011;31769;49.304;8.428;2023-04-01T05:40:43;2.63;;;1.13;;
46036;SDS011;31769;49.304;8.428;2023-04-01T05:43:44;3.63;;;1.02;;
46036;SDS011;31769;49.304;8.428;2023-04-01T05:47:04;5.47;;;1.40;;
46036;SDS011;31769;49.304;8.428;2023-04-01T05:50:05;5.78;;;1.40;;
46036;SDS011;31769;49.304;8.428;2023-04-01T05:53:06;3.70;;;1.23;;
46036;SDS011;31769;49.304;8.428;2023-04-01T05:56:07;5.35;;;1.23;;
46036;SDS011;31769;49.304;8.428;2023-04-01T05:59:13;5.10;;;1.07;;
46036;SDS011;31769;49.304;8.428;2023-04-01T06:02:16;3.70;;;1.50;;
46036;SDS011;31769;49.304;8.428;2023-04-01T06:05:19;4.90;;;1.15;;
46036;SDS011;31769;49.304;8.428;2023-04-01T06:08:22;5.35;;;1.55;;
46036;SDS011;31769;49.304;8.428;2023-04-01T06:11:29;6.22;;;1.70;;
46036;SDS011;31769;49.304;8.428;2023-04-01T06:18:03;5.95;;;1.50;;
46036;SDS011;31769;49.304;8.428;2023-04-01T06:24:44;5.05;;;1.02;;
46036;SDS011;31769;49.304;8.428;2023-04-01T06:28:16;3.33;;;1.00;;
46036;SDS011;31769;49.304;8.428;2023-04-01T06:48:56;2.53;;;0.88;;
46036;SDS011;31769;49.304;8.428;2023-04-01T06:56:11;2.70;;;0.80;;
46036;SDS011;31769;49.304;8.428;2023-04-01T06:59:32;2.17;;;0.80;;
46036;SDS011;31769;49.304;8.428;2023-04-01T07:02:41;3.28;;;0.80;;
46036;SDS011;31769;49.304;8.428;2023-04-01T07:05:47;2.70;;;0.82;;
46036;SDS011;31769;49.304;8.428;2023-04-01T07:08:49;4.25;;;0.98;;
46036;SDS011;31769;49.304;8.428;2023-04-01T07:11:53;2.67;;;1.00;;
46036;SDS011;31769;49.304;8.428;2023-04-01T07:15:39;2.42;;;0.70;;
46036;SDS011;31769;49.304;8.428;2023-04-01T07:18:54;3.33;;;0.90;;
46036;SDS011;31769;49.304;8.428;2023-04-01T07:25:55;3.95;;;1.02;;
46036;SDS011;31769;49.304;8.428;2023-04-01T07:29:05;3.17;;;0.77;;
46036;SDS011;31769;49.304;8.428;2023-04-01T07:32:39;2.95;;;0.75;;
46036;SDS011;31769;49.304;8.428;2023-04-01T07:35:46;2.72;;;0.75;;
46036;SDS011;31769;49.304;8.428;2023-04-01T07:49:57;2.97;;;0.70;;
46036;SDS011;31769;49.304;8.428;2023-04-01T07:59:59;0.95;;;0.57;;
46036;SDS011;31769;49.304;8.428;2023-04-01T08:03:21;1.83;;;0.50;;
46036;SDS011;31769;49.304;8.428;2023-04-01T08:18:47;1.90;;;0.70;;
46036;SDS011;31769;49.304;8.428;2023-04-01T08:22:33;1.95;;;0.70;;
46036;SDS011;31769;49.304;8.428;2023-04-01T08:26:04;1.52;;;0.60;;
46036;SDS011;31769;49.304;8.428;2023-04-01T08:36:37;1.30;;;0.40;;
46036;SDS011;31769;49.304;8.428;2023-04-01T08:40:25;1.45;;;0.60;;
46036;SDS011;31769;49.304;8.428;2023-04-01T08:50:55;1.90;;;0.60;;
46036;SDS011;31769;49.304;8.428;2023-04-01T08:54:34;0.85;;;0.30;;
46036;SDS011;31769;49.304;8.428;2023-04-01T08:58:06;3.67;;;0.68;;
46036;SDS011;31769;49.304;8.428;2023-04-01T09:01:39;2.05;;;0.60;;
46036;SDS011;31769;49.304;8.428;2023-04-01T09:19:21;2.20;;;0.52;;
46036;SDS011;31769;49.304;8.428;2023-04-01T09:36:37;0.63;;;0.30;;
46036;SDS011;31769;49.304;8.428;2023-04-01T10:03:19;1.20;;;0.30;;
46036;SDS011;31769;49.304;8.428;2023-04-01T10:07:31;0.50;;;0.40;;
46036;SDS011;31769;49.304;8.428;2023-04-01T10:14:33;0.75;;;0.40;;
46036;SDS011;31769;49.304;8.428;2023-04-01T10:21:37;0.93;;;0.50;;
46036;SDS011;31769;49.304;8.428;2023-04-01T10:28:30;1.33;;;0.40;;
46036;SDS011;31769;49.304;8.428;2023-04-01T10:42:31;0.77;;;0.30;;
46036;SDS011;31769;49.304;8.428;2023-04-01T10:49:47;1.70;;;0.35;;
46036;SDS011;31769;49.304;8.428;2023-04-01T10:53:17;1.25;;;0.50;;
46036;SDS011;31769;49.304;8.428;2023-04-01T11:24:49;0.47;;;0.30;;
46036;SDS011;31769;49.304;8.428;2023-04-01T11:28:16;1.25;;;0.85;;
46036;SDS011;31769;49.304;8.428;2023-04-01T11:34:43;2.63;;;1.75;;
46036;SDS011;31769;49.304;8.428;2023-04-01T11:45:46;1.08;;;0.40;;
46036;SDS011;31769;49.304;8.428;2023-04-01T11:56:28;0.50;;;0.40;;
46036;SDS011;31769;49.304;8.428;2023-04-01T12:10:19;0.32;;;0.20;;
46036;SDS011;31769;49.304;8.428;2023-04-01T12:17:24;2.75;;;0.60;;
46036;SDS011;31769;49.304;8.428;2023-04-01T12:20:49;0.60;;;0.30;;
46036;SDS011;31769;49.304;8.428;2023-04-01T12:27:37;0.20;;;0.10;;
46036;SDS011;31769;49.304;8.428;2023-04-01T12:37:36;2.50;;;1.23;;
46036;SDS011;31769;49.304;8.428;2023-04-01T12:44:23;2.00;;;1.02;;
46036;SDS011;31769;49.304;8.428;2023-04-01T13:07:46;1.02;;;0.70;;
46036;SDS011;31769;49.304;8.428;2023-04-01T13:11:02;1.38;;;0.75;;
46036;SDS011;31769;49.304;8.428;2023-04-01T13:21:25;0.40;;;0.10;;
46036;SDS011;31769;49.304;8.428;2023-04-01T13:25:01;0.40;;;0.10;;
46036;SDS011;31769;49.304;8.428;2023-04-01T13:37:39;1.25;;;0.40;;
46036;SDS011;31769;49.304;8.428;2023-04-01T13:44:22;1.15;;;0.57;;
46036;SDS011;31769;49.304;8.428;2023-04-01T13:57:07;1.48;;;0.60;;
46036;SDS011;31769;49.304;8.428;2023-04-01T14:10:28;0.45;;;0.32;;
46036;SDS011;31769;49.304;8.428;2023-04-01T14:20:37;1.50;;;0.30;;
46036;SDS011;31769;49.304;8.428;2023-04-01T14:24:08;0.65;;;0.63;;
46036;SDS011;31769;49.304;8.428;2023-04-01T14:33:56;0.98;;;0.50;;
46036;SDS011;31769;49.304;8.428;2023-04-01T14:50:25;1.00;;;0.38;;
46036;SDS011;31769;49.304;8.428;2023-04-01T14:53:30;0.88;;;0.38;;
46036;SDS011;31769;49.304;8.428;2023-04-01T14:56:36;1.23;;;0.40;;
46036;SDS011;31769;49.304;8.428;2023-04-01T14:59:48;0.30;;;0.30;;
46036;SDS011;31769;49.304;8.428;2023-04-01T15:06:35;1.08;;;0.70;;
46036;SDS011;31769;49.304;8.428;2023-04-01T15:24:01;1.00;;;0.22;;
46036;SDS011;31769;49.304;8.428;2023-04-01T15:27:19;0.35;;;0.20;;
46036;SDS011;31769;49.304;8.428;2023-04-01T15:30:30;2.05;;;0.38;;
46036;SDS011;31769;49.304;8.428;2023-04-01T15:36:56;1.90;;;0.60;;
46036;SDS011;31769;49.304;8.428;2023-04-01T15:40:22;0.50;;;0.50;;
46036;SDS011;31769;49.304;8.428;2023-04-01T15:43:51;1.67;;;0.55;;
46036;SDS011;31769;49.304;8.428;2023-04-01T15:46:52;0.88;;;0.40;;
46036;SDS011;31769;49.304;8.428;2023-04-01T16:00:58;1.58;;;0.40;;
46036;SDS011;31769;49.304;8.428;2023-04-01T16:14:34;1.88;;;0.38;;
46036;SDS011;31769;49.304;8.428;2023-04-01T16:17:55;0.93;;;0.20;;
46036;SDS011;31769;49.304;8.428;2023-04-01T16:21:02;0.65;;;0.10;;
46036;SDS011;31769;49.304;8.428;2023-04-01T16:24:17;0.68;;;0.20;;
46036;SDS011;31769;49.304;8.428;2023-04-01T16:27:29;2.50;;;0.20;;
46036;SDS011;31769;49.304;8.428;2023-04-01T16:34:10;1.02;;;0.20;;
46036;SDS011;31769;49.304;8.428;2023-04-01T16:37:55;0.68;;;0.30;;
46036;SDS011;31769;49.304;8.428;2023-04-01T16:44:13;1.77;;;0.30;;
46036;SDS011;31769;49.304;8.428;2023-04-01T16:47:22;0.57;;;0.20;;
46036;SDS011;31769;49.304;8.428;2023-04-01T16:50:30;1.92;;;0.20;;
46036;SDS011;31769;49.304;8.428;2023-04-01T16:54:02;1.10;;;0.40;;
46036;SDS011;31769;49.304;8.428;2023-04-01T16:57:25;0.30;;;0.20;;
46036;SDS011;31769;49.304;8.428;2023-04-01T17:00:49;0.50;;;0.10;;
46036;SDS011;31769;49.304;8.428;2023-04-01T17:04:00;1.15;;;0.30;;
46036;SDS011;31769;49.304;8.428;2023-04-01T17:10:22;0.82;;;0.10;;
46036;SDS011;31769;49.304;8.428;2023-04-01T17:13:29;0.28;;;0.17;;
46036;SDS011;31769;49.304;8.428;2023-04-01T17:26:57;3.03;;;1.20;;
46036;SDS011;31769;49.304;8.428;2023-04-01T18:23:44;1.42;;;0.35;;
46036;SDS011;31769;49.304;8.428;2023-04-01T18:27:04;0.52;;;0.15;;
46036;SDS011;31769;49.304;8.428;2023-04-01T18:30:27;0.73;;;0.10;;
46036;SDS011;31769;49.304;8.428;2023-04-01T18:37:12;0.77;;;0.10;;
46036;SDS011;31769;49.304;8.428;2023-04-01T18:40:32;1.25;;;0.40;;
46036;SDS011;31769;49.304;8.428;2023-04-01T18:47:19;1.25;;;0.20;;
46036;SDS011;31769;49.304;8.428;2023-04-01T18:51:00;0.50;;;0.30;;
46036;SDS011;31769;49.304;8.428;2023-04-01T18:57:16;0.80;;;0.57;;
46036;SDS011;31769;49.304;8.428;2023-04-01T19:00:22;6.25;;;3.10;;
46036;SDS011;31769;49.304;8.428;2023-04-01T19:03:43;2.80;;;0.40;;
46036;SDS011;31769;49.304;8.428;2023-04-01T19:06:59;1.80;;;0.50;;
46036;SDS011;31769;49.304;8.428;2023-04-01T19:16:45;0.80;;;0.40;;
46036;SDS011;31769;49.304;8.428;2023-04-01T19:26:40;1.00;;;0.45;;
46036;SDS011;31769;49.304;8.428;2023-04-01T19:29:58;1.92;;;0.82;;
46036;SDS011;31769;49.304;8.428;2023-04-01T19:40:16;1.00;;;0.80;;
46036;SDS011;31769;49.304;8.428;2023-04-01T19:43:33;1.98;;;0.55;;
46036;SDS011;31769;49.304;8.428;2023-04-01T19:46:41;1.23;;;0.70;;
46036;SDS011;31769;49.304;8.428;2023-04-01T19:49:58;2.72;;;1.92;;
46036;SDS011;31769;49.304;8.428;2023-04-01T19:53:23;2.67;;;1.17;;
46036;SDS011;31769;49.304;8.428;2023-04-01T19:59:50;2.35;;;0.90;;
46036;SDS011;31769;49.304;8.428;2023-04-01T20:06:35;3.37;;;2.93;;
46036;SDS011;31769;49.304;8.428;2023-04-01T20:09:44;1.52;;;1.10;;
46036;SDS011;31769;49.304;8.428;2023-04-01T20:13:13;4.40;;;4.00;;
46036;SDS011;31769;49.304;8.428;2023-04-01T20:16:47;3.35;;;3.05;;
46036;SDS011;31769;49.304;8.428;2023-04-01T20:23:24;3.05;;;2.85;;
46036;SDS011;31769;49.304;8.428;2023-04-01T20:26:34;2.00;;;0.90;;
46036;SDS011;31769;49.304;8.428;2023-04-01T20:33:20;1.10;;;0.88;;
46036;SDS011;31769;49.304;8.428;2023-04-01T20:36:40;3.03;;;1.00;;
46036;SDS011;31769;49.304;8.428;2023-04-01T20:40:06;0.90;;;0.90;;
46036;SDS011;31769;49.304;8.428;2023-04-01T20:54:10;1.63;;;1.52;;
46036;SDS011;31769;49.304;8.428;2023-04-01T21:00:37;4.85;;;3.40;;
46036;SDS011;31769;49.304;8.428;2023-04-01T21:03:45;2.83;;;2.33;;
46036;SDS011;31769;49.304;8.428;2023-04-01T21:06:58;2.28;;;1.70;;
46036;SDS011;31769;49.304;8.428;2023-04-01T21:33:48;1.40;;;0.98;;
46036;SDS011;31769;49.304;8.428;2023-04-01T21:40:24;1.70;;;1.08;;
46036;SDS011;31769;49.304;8.428;2023-04-01T21:50:39;1.77;;;1.30;;
46036;SDS011;31769;49.304;8.428;2023-04-01T22:00:09;2.03;;;1.23;;
46036;SDS011;31769;49.304;8.428;2023-04-01T22:09:52;2.80;;;1.10;;
46036;SDS011;31769;49.304;8.428;2023-04-01T22:16:39;1.00;;;0.80;;
46036;SDS011;31769;49.304;8.428;2023-04-01T22:19:59;2.67;;;1.95;;
46036;SDS011;31769;49.304;8.428;2023-04-01T22:23:14;2.20;;;1.30;;
46036;SDS011;31769;49.304;8.428;2023-04-01T22:30:16;3.33;;;1.20;;
46036;SDS011;31769;49.304;8.428;2023-04-01T22:33:28;2.22;;;1.20;;
46036;SDS011;31769;49.304;8.428;2023-04-01T22:43:54;2.72;;;1.15;;
46036;SDS011;31769;49.304;8.428;2023-04-01T22:47:00;2.70;;;1.20;;
46036;SDS011;31769;49.304;8.428;2023-04-01T22:50:19;2.90;;;1.23;;
46036;SDS011;31769;49.304;8.428;2023-04-01T23:00:48;3.83;;;1.08;;
46036;SDS011;31769;49.304;8.428;2023-04-01T23:06:45;2.92;;;1.20;;
46036;SDS011;31769;49.304;8.428;2023-04-01T23:09:52;2.17;;;1.00;;
46036;SDS011;31769;49.304;8.428;2023-04-01T23:12:58;4.32;;;1.25;;
46036;SDS011;31769;49.304;8.428;2023-04-01T23:16:00;2.58;;;0.85;;
46036;SDS011;31769;49.304;8.428;2023-04-01T23:22:51;3.60;;;1.10;;
46036;SDS011;31769;49.304;8.428;2023-04-01T23:29:12;3.00;;;1.35;;
46036;SDS011;31769;49.304;8.428;2023-04-01T23:32:18;2.60;;;1.25;;
46036;SDS011;31769;49.304;8.428;2023-04-01T23:35:22;6.03;;;1.30;;
46036;SDS011;31769;49.304;8.428;2023-04-01T23:38:24;4.05;;;1.38;;
46036;SDS011;31769;49.304;8.428;2023-04-01T23:41:27;2.88;;;1.40;;
46036;SDS011;31769;49.304;8.428;2023-04-01T23:44:30;2.78;;;1.17;;
46036;SDS011;31769;49.304;8.428;2023-04-01T23:47:33;3.45;;;1.40;;
46036;SDS011;31769;49.304;8.428;2023-04-01T23:50:35;2.53;;;1.30;;
46036;SDS011;31769;49.304;8.428;2023-04-01T23:53:36;1.73;;;1.33;;
46036;SDS011;31769;49.304;8.428;2023-04-01T23:56:46;2.67;;;1.33;;
